Time;durP1;ratioP1;P1;durP2;ratioP2;P2;SDS_P1;SDS_P2;PMS_P1;PMS_P2;Temp;Humidity;BMP_temperature;BMP_pressure;BME280_temperature;BME280_humidity;BME280_pressure;Samples;Min_cycle;Max_cycle;Signal;HPM_P1;HPM_P2
2023/08/10 00:00:12;;;;;;;11.05;3.67;;;;;;;16.40;64.83;101433.72;682422;29;1915;-77
2023/08/10 00:00:33;;;;;;;7.35;3.40;;;;;;;16.31;65.14;101429.22;680796;29;1127;-78
2023/08/10 00:00:53;;;;;;;5.37;2.90;;;;;;;16.35;64.90;101432.78;676864;29;1402;-78
2023/08/10 00:01:14;;;;;;;8.38;3.33;;;;;;;16.35;64.76;101430.16;672496;29;1268;-78
2023/08/10 00:01:35;;;;;;;8.73;3.40;;;;;;;16.33;64.83;101429.25;677217;29;1010;-78
2023/08/10 00:01:55;;;;;;;8.53;3.60;;;;;;;16.33;64.84;101427.50;675455;29;1656;-78
2023/08/10 00:02:16;;;;;;;4.30;3.05;;;;;;;16.39;64.78;101435.50;680111;28;1677;-77
2023/08/10 00:02:36;;;;;;;4.00;3.00;;;;;;;16.31;64.82;101424.81;679693;29;1093;-78
2023/08/10 00:02:57;;;;;;;5.87;3.10;;;;;;;16.35;64.82;101431.03;677213;29;788;-78
2023/08/10 00:03:17;;;;;;;8.98;3.50;;;;;;;16.36;64.84;101427.56;679143;29;1112;-78
2023/08/10 00:03:38;;;;;;;12.00;3.70;;;;;;;16.34;64.71;101424.00;679656;29;1210;-78
2023/08/10 00:03:59;;;;;;;10.93;3.60;;;;;;;16.37;64.90;101431.97;674740;29;800;-78
2023/08/10 00:04:20;;;;;;;8.45;3.55;;;;;;;16.35;64.79;101428.38;674599;29;1134;-78
2023/08/10 00:04:41;;;;;;;5.50;3.27;;;;;;;16.34;64.75;101428.38;674211;29;1827;-78
2023/08/10 00:05:02;;;;;;;7.00;3.17;;;;;;;16.33;64.74;101422.22;674787;29;1011;-77
2023/08/10 00:05:22;;;;;;;7.85;3.15;;;;;;;16.34;64.85;101424.00;680514;29;991;-78
2023/08/10 00:05:43;;;;;;;8.47;3.40;;;;;;;16.38;64.98;101419.66;679795;29;1299;-78
2023/08/10 00:06:04;;;;;;;5.70;3.30;;;;;;;16.33;65.07;101421.34;679903;29;1144;-77
2023/08/10 00:06:25;;;;;;;4.47;3.20;;;;;;;16.37;64.91;101428.41;676692;29;1379;-77
2023/08/10 00:06:45;;;;;;;4.75;3.20;;;;;;;16.34;65.13;101424.00;681878;29;1702;-78
2023/08/10 00:07:06;;;;;;;6.10;3.20;;;;;;;16.33;64.86;101424.00;682634;28;1175;-78
2023/08/10 00:07:26;;;;;;;7.25;3.30;;;;;;;16.34;64.89;101424.00;682496;29;1190;-78
2023/08/10 00:07:47;;;;;;;6.57;3.10;;;;;;;16.33;64.86;101424.84;681110;28;1968;-78
2023/08/10 00:08:08;;;;;;;7.47;3.10;;;;;;;16.34;64.93;101421.34;686699;28;1250;-78
2023/08/10 00:08:29;;;;;;;7.28;3.20;;;;;;;16.35;64.88;101422.25;684790;28;987;-78
2023/08/10 00:08:50;;;;;;;7.78;3.50;;;;;;;16.36;64.87;101422.28;680012;28;1047;-79
2023/08/10 00:09:11;;;;;;;6.67;3.73;;;;;;;16.35;64.86;101420.50;684883;28;1183;-77
2023/08/10 00:09:32;;;;;;;7.60;3.80;;;;;;;16.35;64.86;101424.88;683132;28;1505;-77
2023/08/10 00:09:53;;;;;;;6.95;3.50;;;;;;;16.33;64.88;101416.97;686249;28;1069;-78
2023/08/10 00:10:13;;;;;;;7.23;3.60;;;;;;;16.30;64.94;101411.66;686711;28;985;-78
2023/08/10 00:10:34;;;;;;;6.72;3.70;;;;;;;16.37;65.01;101423.16;685018;28;1057;-79
2023/08/10 00:10:55;;;;;;;8.03;3.80;;;;;;;16.40;64.87;101429.34;682291;29;1014;-78
2023/08/10 00:11:16;;;;;;;7.63;3.65;;;;;;;16.34;65.04;101424.00;682621;28;997;-77
2023/08/10 00:11:36;;;;;;;6.20;3.40;;;;;;;16.35;65.02;101425.75;682379;29;1119;-78
2023/08/10 00:11:57;;;;;;;5.90;3.55;;;;;;;16.33;64.97;101416.09;679818;29;1150;-77
2023/08/10 00:12:18;;;;;;;9.55;3.70;;;;;;;16.37;65.09;101423.16;674812;29;2000;-78
2023/08/10 00:12:39;;;;;;;9.53;3.70;;;;;;;16.40;65.09;101423.19;677101;29;982;-78
2023/08/10 00:12:59;;;;;;;9.95;3.40;;;;;;;16.37;65.06;101417.88;682787;28;934;-78
2023/08/10 00:13:20;;;;;;;7.55;3.65;;;;;;;16.37;65.05;101420.53;678751;29;1667;-78
2023/08/10 00:13:40;;;;;;;8.40;3.63;;;;;;;16.37;64.89;101424.06;677334;29;1043;-78
2023/08/10 00:14:03;;;;;;;6.13;3.50;;;;;;;16.42;64.91;101440.78;674357;29;1039;-77
2023/08/10 00:14:23;;;;;;;7.32;3.13;;;;;;;16.42;65.15;101427.63;674503;29;1042;-78
2023/08/10 00:14:44;;;;;;;8.10;3.30;;;;;;;16.38;65.00;101425.81;679365;29;1168;-78
2023/08/10 00:15:06;;;;;;;8.47;3.50;;;;;;;16.44;65.03;101431.19;679892;29;1135;-77
2023/08/10 00:15:27;;;;;;;8.98;3.80;;;;;;;16.39;65.02;101424.94;684395;28;1692;-77
2023/08/10 00:15:48;;;;;;;8.68;3.70;;;;;;;16.41;64.98;101427.63;684331;28;1206;-78
2023/08/10 00:16:09;;;;;;;7.97;3.70;;;;;;;16.42;65.09;101427.63;682601;29;1374;-78
2023/08/10 00:16:30;;;;;;;7.78;3.60;;;;;;;16.41;65.08;101420.56;677294;29;1634;-78
2023/08/10 00:16:51;;;;;;;7.20;3.80;;;;;;;16.43;64.95;101428.50;679777;29;1041;-78
2023/08/10 00:17:12;;;;;;;6.75;3.70;;;;;;;16.44;64.89;101432.91;676654;29;1194;-78
2023/08/10 00:17:33;;;;;;;5.43;3.45;;;;;;;16.41;64.83;101420.56;679018;29;1888;-79
2023/08/10 00:17:54;;;;;;;6.40;3.60;;;;;;;16.46;64.87;101427.69;682272;29;1128;-78
2023/08/10 00:18:14;;;;;;;5.93;3.50;;;;;;;16.44;64.91;101430.28;683289;28;1065;-77
2023/08/10 00:18:35;;;;;;;7.45;3.90;;;;;;;16.42;64.98;101427.63;679756;29;1370;-79
2023/08/10 00:18:56;;;;;;;6.37;3.60;;;;;;;16.40;64.94;101423.19;679788;29;1339;-78
2023/08/10 00:19:16;;;;;;;8.40;3.70;;;;;;;16.44;64.81;101428.56;677201;29;1082;-78
2023/08/10 00:19:37;;;;;;;6.93;3.27;;;;;;;16.41;65.05;101425.84;680010;29;1130;-78
2023/08/10 00:19:57;;;;;;;8.27;3.33;;;;;;;16.40;64.96;101426.72;682443;29;1307;-78
2023/08/10 00:20:18;;;;;;;6.47;3.30;;;;;;;16.42;65.03;101430.25;682313;28;1283;-78
2023/08/10 00:20:39;;;;;;;6.72;3.38;;;;;;;16.45;65.10;101432.03;682374;29;1690;-78
2023/08/10 00:21:01;;;;;;;8.37;3.50;;;;;;;16.48;65.10;101439.13;683175;28;1679;-78
2023/08/10 00:21:22;;;;;;;9.20;3.50;;;;;;;16.47;64.97;101440.84;686779;28;1237;-78
2023/08/10 00:21:42;;;;;;;8.17;3.40;;;;;;;16.41;64.95;101431.13;687176;28;1040;-78
2023/08/10 00:22:03;;;;;;;5.95;3.40;;;;;;;16.39;65.03;101422.31;682296;28;1599;-78
2023/08/10 00:22:24;;;;;;;5.90;3.30;;;;;;;16.41;65.10;101425.84;683398;28;1072;-78
2023/08/10 00:22:44;;;;;;;5.77;3.13;;;;;;;16.43;65.09;101432.00;680383;29;1065;-77
2023/08/10 00:23:05;;;;;;;6.37;3.00;;;;;;;16.42;65.06;101424.13;679865;29;1993;-78
2023/08/10 00:23:26;;;;;;;5.43;3.10;;;;;;;16.43;64.99;101424.13;681605;29;1093;-78
2023/08/10 00:23:47;;;;;;;6.50;3.20;;;;;;;16.46;64.98;101431.19;679813;29;1078;-78
2023/08/10 00:24:08;;;;;;;6.28;3.40;;;;;;;16.46;65.03;101427.69;680084;29;1917;-78
2023/08/10 00:24:28;;;;;;;6.97;3.38;;;;;;;16.43;65.15;101423.25;678705;29;1693;-77
2023/08/10 00:24:49;;;;;;;6.73;3.40;;;;;;;16.42;64.94;101426.75;680246;29;1096;-78
2023/08/10 00:25:09;;;;;;;6.18;3.50;;;;;;;16.46;64.88;101433.81;680167;29;1287;-77
2023/08/10 00:25:30;;;;;;;5.20;3.37;;;;;;;16.42;64.79;101421.47;682564;29;2062;-78
2023/08/10 00:25:50;;;;;;;5.20;3.15;;;;;;;16.46;64.92;101431.19;682280;29;994;-78
2023/08/10 00:26:11;;;;;;;5.40;2.80;;;;;;;16.50;64.88;101440.91;677282;29;1048;-77
2023/08/10 00:26:32;;;;;;;5.47;2.90;;;;;;;16.47;64.79;101434.72;679963;29;2017;-78
2023/08/10 00:26:53;;;;;;;4.33;3.00;;;;;;;16.42;64.77;101422.34;682642;28;1152;-78
2023/08/10 00:27:14;;;;;;;5.35;3.50;;;;;;;16.45;64.62;101429.41;682172;29;1076;-78
2023/08/10 00:27:38;;;;;;;5.57;3.50;;;;;;;16.43;64.67;101429.38;677040;29;1974;-78
2023/08/10 00:27:58;;;;;;;6.10;3.35;;;;;;;16.43;64.82;101437.28;674877;29;1950;-78
2023/08/10 00:28:21;;;;;;;6.28;3.33;;;;;;;16.47;64.77;101439.97;675982;29;1070;-78
2023/08/10 00:28:42;;;;;;;7.20;3.30;;;;;;;16.43;64.72;101426.75;676854;29;1091;-78
2023/08/10 00:29:02;;;;;;;7.65;3.30;;;;;;;16.41;64.82;101425.84;674876;29;1119;-78
2023/08/10 00:29:23;;;;;;;8.15;3.30;;;;;;;16.41;64.67;101431.13;679090;29;1006;-78
2023/08/10 00:29:44;;;;;;;8.00;3.20;;;;;;;16.42;64.72;101432.88;677128;29;975;-79
2023/08/10 00:30:07;;;;;;;8.43;3.10;;;;;;;16.47;64.67;101445.25;683022;29;1108;-79
2023/08/10 00:30:28;;;;;;;7.63;3.20;;;;;;;16.39;64.55;101422.31;680406;29;1460;-78
2023/08/10 00:30:48;;;;;;;6.68;3.10;;;;;;;16.39;64.71;101426.69;675913;29;1984;-78
2023/08/10 00:31:09;;;;;;;6.10;2.88;;;;;;;16.42;64.62;101432.00;680405;29;1211;-78
2023/08/10 00:31:30;;;;;;;5.38;2.95;;;;;;;16.40;64.44;101433.72;680667;29;1286;-78
2023/08/10 00:31:51;;;;;;;5.57;3.20;;;;;;;16.43;64.55;101432.00;677763;29;1459;-78
2023/08/10 00:32:12;;;;;;;5.28;3.20;;;;;;;16.36;64.48;101427.56;677861;29;1164;-78
2023/08/10 00:32:34;;;;;;;5.03;3.10;;;;;;;16.38;64.57;101435.47;678300;29;1097;-78
2023/08/10 00:32:54;;;;;;;4.47;3.00;;;;;;;16.37;64.64;101434.59;678694;29;2210;-78
2023/08/10 00:33:15;;;;;;;5.10;3.17;;;;;;;16.39;64.52;101435.50;680577;29;1112;-77
2023/08/10 00:33:37;;;;;;;6.20;3.50;;;;;;;16.39;64.56;101438.13;683503;29;1197;-77
2023/08/10 00:33:58;;;;;;;7.82;3.60;;;;;;;16.36;64.51;101427.56;681043;29;898;-78
2023/08/10 00:34:19;;;;;;;6.15;3.35;;;;;;;16.42;64.45;101438.16;683333;28;1045;-78
2023/08/10 00:34:41;;;;;;;5.70;3.03;;;;;;;16.33;64.64;101424.00;684591;28;1027;-77
2023/08/10 00:35:02;;;;;;;4.47;2.67;;;;;;;16.39;64.34;101432.84;681404;29;1301;-76
2023/08/10 00:35:23;;;;;;;5.03;2.60;;;;;;;16.38;64.50;101430.19;679801;29;1238;-78
2023/08/10 00:35:44;;;;;;;6.20;2.78;;;;;;;16.39;64.63;101431.94;681598;29;1042;-78
2023/08/10 00:36:08;;;;;;;7.15;3.20;;;;;;;16.34;64.66;101424.00;680631;29;989;-77
2023/08/10 00:36:29;;;;;;;7.38;3.40;;;;;;;16.37;64.50;101428.41;680693;29;1397;-78
2023/08/10 00:36:49;;;;;;;6.05;3.20;;;;;;;16.46;64.62;101438.22;677700;29;1171;-78
2023/08/10 00:37:10;;;;;;;5.40;3.10;;;;;;;16.38;64.40;101425.81;677837;29;1402;-77
2023/08/10 00:37:36;;;;;;;6.07;3.07;;;;;;;16.39;64.48;101432.84;680571;29;1965;-77
2023/08/10 00:37:57;;;;;;;8.00;3.20;;;;;;;16.39;64.66;101432.84;677868;29;1522;-77
2023/08/10 00:38:18;;;;;;;7.10;3.10;;;;;;;16.42;64.29;101432.88;675461;29;1440;-78
2023/08/10 00:38:39;;;;;;;8.35;3.35;;;;;;;16.46;64.44;101440.84;674611;29;1475;-78
2023/08/10 00:39:00;;;;;;;7.35;3.38;;;;;;;16.38;64.50;101424.91;683119;29;855;-77
2023/08/10 00:39:21;;;;;;;9.33;3.40;;;;;;;16.39;64.41;101432.84;681387;29;1074;-77
2023/08/10 00:39:42;;;;;;;8.40;3.40;;;;;;;16.43;64.55;101439.91;680195;29;1723;-78
2023/08/10 00:40:03;;;;;;;6.63;3.35;;;;;;;16.41;64.53;101436.38;679714;29;1559;-78
2023/08/10 00:40:23;;;;;;;5.55;3.20;;;;;;;16.38;64.50;101427.56;676630;29;1248;-77
2023/08/10 00:40:44;;;;;;;5.15;2.92;;;;;;;16.41;64.40;101436.38;678313;29;2050;-77
2023/08/10 00:41:05;;;;;;;4.75;2.80;;;;;;;16.42;64.66;101438.16;682936;28;981;-77
2023/08/10 00:41:25;;;;;;;6.33;3.00;;;;;;;16.38;64.46;101425.81;678084;29;1077;-78
2023/08/10 00:41:46;;;;;;;6.03;2.90;;;;;;;16.42;64.62;101432.00;679311;29;1022;-78
2023/08/10 00:42:07;;;;;;;6.22;3.00;;;;;;;16.41;64.48;101438.16;678272;29;1156;-77
2023/08/10 00:42:27;;;;;;;4.90;3.20;;;;;;;16.41;64.65;101433.75;682567;28;1153;-77
2023/08/10 00:42:48;;;;;;;5.55;3.65;;;;;;;16.40;64.71;101429.34;677158;29;1206;-77
2023/08/10 00:43:10;;;;;;;5.60;3.50;;;;;;;16.42;64.59;101432.88;679153;29;1558;-78
2023/08/10 00:43:32;;;;;;;5.95;3.35;;;;;;;16.40;64.67;101429.34;679773;29;1377;-78
2023/08/10 00:43:52;;;;;;;5.55;3.10;;;;;;;16.41;64.60;101440.78;682471;29;2022;-77
2023/08/10 00:44:16;;;;;;;6.13;3.10;;;;;;;16.43;64.68;101439.06;680077;29;1210;-78
2023/08/10 00:44:36;;;;;;;6.35;3.10;;;;;;;16.40;64.67;101433.72;675176;29;1143;-77
2023/08/10 00:44:57;;;;;;;6.20;3.10;;;;;;;16.42;64.63;101432.88;687767;28;1736;-78
2023/08/10 00:45:18;;;;;;;4.43;3.20;;;;;;;16.42;64.80;101438.16;685556;28;1580;-77
2023/08/10 00:45:39;;;;;;;4.28;3.20;;;;;;;16.42;64.84;101427.63;679711;28;1237;-78
2023/08/10 00:46:00;;;;;;;5.85;3.35;;;;;;;16.47;64.65;101440.84;677457;29;1414;-77
2023/08/10 00:46:21;;;;;;;6.13;3.20;;;;;;;16.50;64.82;101440.91;675923;29;995;-78
2023/08/10 00:46:42;;;;;;;7.47;3.33;;;;;;;16.49;64.74;101439.16;674523;29;1395;-78
2023/08/10 00:47:04;;;;;;;6.40;3.17;;;;;;;16.46;64.66;101431.19;676705;29;1342;-78
2023/08/10 00:47:25;;;;;;;8.27;3.38;;;;;;;16.54;64.72;101447.13;679244;29;1102;-78
2023/08/10 00:47:47;;;;;;;6.70;3.50;;;;;;;16.54;64.54;101442.72;679807;29;1931;-78
2023/08/10 00:48:08;;;;;;;6.60;3.60;;;;;;;16.50;64.63;101434.75;677467;29;1222;-77
2023/08/10 00:48:30;;;;;;;4.30;3.03;;;;;;;16.50;64.73;101434.75;677249;29;1768;-78
2023/08/10 00:48:51;;;;;;;6.18;3.05;;;;;;;16.55;64.65;101443.59;677277;29;1001;-77
2023/08/10 00:49:11;;;;;;;7.35;3.25;;;;;;;16.49;64.77;101430.34;677328;29;1105;-78
2023/08/10 00:49:33;;;;;;;7.65;3.40;;;;;;;16.55;64.61;101433.94;675262;29;1917;-77
2023/08/10 00:49:54;;;;;;;7.03;3.30;;;;;;;16.54;64.63;101444.47;677566;29;1507;-78
2023/08/10 00:50:15;;;;;;;7.50;3.28;;;;;;;16.50;64.72;101429.47;679954;29;1144;-78
2023/08/10 00:50:35;;;;;;;7.00;3.20;;;;;;;16.51;64.68;101436.50;679081;29;1493;-77
2023/08/10 00:50:56;;;;;;;6.07;3.28;;;;;;;16.50;64.60;101429.47;680268;29;1176;-78
2023/08/10 00:51:18;;;;;;;5.00;3.03;;;;;;;16.51;64.73;101437.41;679319;29;1048;-79
2023/08/10 00:51:39;;;;;;;5.75;3.10;;;;;;;16.55;64.34;101440.97;677149;29;1094;-78
2023/08/10 00:52:01;;;;;;;5.80;3.13;;;;;;;16.47;64.57;101426.81;685339;28;1143;-78
2023/08/10 00:52:21;;;;;;;7.68;3.50;;;;;;;16.54;64.45;101442.72;682486;28;1190;-77
2023/08/10 00:52:42;;;;;;;7.07;3.30;;;;;;;16.51;64.44;101426.88;682062;29;963;-78
2023/08/10 00:53:03;;;;;;;7.05;3.30;;;;;;;16.49;64.44;101431.25;679842;29;1119;-77
2023/08/10 00:53:25;;;;;;;5.50;2.80;;;;;;;16.53;64.50;101432.16;678978;29;1106;-77
2023/08/10 00:53:46;;;;;;;5.40;2.88;;;;;;;16.51;64.52;101436.50;678879;29;1506;-78
2023/08/10 00:54:07;;;;;;;7.00;3.05;;;;;;;16.49;64.46;101422.44;680150;29;948;-78
2023/08/10 00:54:27;;;;;;;8.70;3.33;;;;;;;16.54;64.50;101432.16;677113;29;1081;-78
2023/08/10 00:54:48;;;;;;;8.83;3.37;;;;;;;16.56;64.22;101441.00;677052;29;1452;-78
2023/08/10 00:55:10;;;;;;;7.50;3.20;;;;;;;16.52;64.29;101430.38;677072;29;1080;-78
2023/08/10 00:55:31;;;;;;;5.55;3.05;;;;;;;16.50;64.30;101429.47;674782;29;844;-77
2023/08/10 00:55:53;;;;;;;6.68;3.10;;;;;;;16.54;64.23;101441.84;671225;29;1123;-77
2023/08/10 00:56:16;;;;;;;6.43;3.20;;;;;;;16.50;64.41;101432.09;674739;29;1113;-77
2023/08/10 00:56:36;;;;;;;8.57;3.20;;;;;;;16.47;64.22;101427.69;675368;29;1606;-78
2023/08/10 00:56:58;;;;;;;8.17;3.10;;;;;;;16.57;64.26;101441.88;674303;29;1108;-78
2023/08/10 00:57:18;;;;;;;7.95;3.03;;;;;;;16.48;64.25;101429.47;679572;29;1360;-78
2023/08/10 00:57:39;;;;;;;4.95;3.10;;;;;;;16.48;64.22;101428.56;684952;28;1252;-78
2023/08/10 00:58:01;;;;;;;6.32;3.30;;;;;;;16.51;64.07;101432.13;679923;29;964;-78
2023/08/10 00:58:22;;;;;;;6.65;3.30;;;;;;;16.49;64.20;101439.16;678686;29;1230;-78
2023/08/10 00:58:44;;;;;;;6.30;3.17;;;;;;;16.49;64.16;101435.63;677302;28;1221;-78
2023/08/10 00:59:04;;;;;;;4.13;2.92;;;;;;;16.52;63.93;101435.63;680066;29;1054;-78
2023/08/10 00:59:27;;;;;;;4.82;3.10;;;;;;;16.47;64.29;101435.59;682110;29;1750;-78
2023/08/10 00:59:48;;;;;;;5.78;3.22;;;;;;;16.46;64.10;101423.28;676731;29;1358;-78
2023/08/10 01:00:10;;;;;;;5.80;3.20;;;;;;;16.52;64.02;101440.91;671913;29;1342;-77
2023/08/10 01:00:31;;;;;;;5.03;3.20;;;;;;;16.47;63.98;101429.44;676715;29;2005;-78
2023/08/10 01:00:52;;;;;;;4.65;3.20;;;;;;;16.49;63.98;101439.16;680052;29;1388;-78
2023/08/10 01:01:13;;;;;;;4.95;3.30;;;;;;;16.47;63.87;101429.44;684961;28;1184;-79
2023/08/10 01:01:34;;;;;;;5.27;3.23;;;;;;;16.50;64.00;101437.38;681007;28;1505;-79
2023/08/10 01:01:55;;;;;;;6.10;3.42;;;;;;;16.52;63.90;101444.44;679595;29;1333;-78
2023/08/10 01:02:16;;;;;;;5.28;3.40;;;;;;;16.49;63.94;101435.63;675655;29;1229;-78
2023/08/10 01:02:41;;;;;;;4.68;3.33;;;;;;;16.49;63.84;101439.16;677123;29;1253;-76
2023/08/10 01:03:02;;;;;;;4.55;3.17;;;;;;;16.47;64.03;101434.72;680288;29;1104;-75
2023/08/10 01:03:23;;;;;;;6.78;3.03;;;;;;;16.48;63.84;101436.47;675128;29;1009;-77
2023/08/10 01:03:44;;;;;;;8.20;3.30;;;;;;;16.44;64.00;101428.56;679800;29;1509;-78
2023/08/10 01:04:05;;;;;;;9.82;3.30;;;;;;;16.47;63.88;101437.34;679974;29;1199;-78
2023/08/10 01:04:26;;;;;;;7.20;3.25;;;;;;;16.47;63.84;101437.34;680147;29;1128;-78
2023/08/10 01:04:46;;;;;;;6.00;3.10;;;;;;;16.47;63.90;101437.34;675653;29;1554;-78
2023/08/10 01:05:12;;;;;;;5.90;3.30;;;;;;;16.47;63.80;101429.44;677761;29;986;-78
2023/08/10 01:05:37;;;;;;;5.72;2.95;;;;;;;16.48;63.85;101441.75;677554;29;886;-78
2023/08/10 01:06:18;;;;;;;7.05;2.90;;;;;;;16.47;63.90;101434.72;682853;29;1265;-77
2023/08/10 01:06:48;;;;;;;10.10;3.20;;;;;;;16.42;63.80;101438.16;682789;29;1137;-77
2023/08/10 01:07:25;;;;;;;8.55;2.92;;;;;;;16.46;63.80;101436.44;682013;29;1042;-78
2023/08/10 01:07:59;;;;;;;6.18;3.40;;;;;;;16.43;63.90;101434.66;675194;29;1923;-78
2023/08/10 01:08:43;;;;;;;8.90;3.50;;;;;;;16.43;63.77;101429.38;674867;29;1022;-77
2023/08/10 01:09:06;;;;;;;9.13;3.30;;;;;;;16.52;63.72;101448.81;676857;29;993;-79
2023/08/10 01:09:33;;;;;;;7.82;3.30;;;;;;;16.52;63.70;101448.81;677605;29;1089;-78
2023/08/10 01:10:09;;;;;;;6.70;3.10;;;;;;;16.43;63.72;101436.41;679798;29;1663;-78
2023/08/10 01:10:44;;;;;;;4.90;3.10;;;;;;;16.43;63.66;101432.00;680264;29;906;-77
2023/08/10 01:11:04;;;;;;;6.43;3.40;;;;;;;16.51;63.81;101442.69;680290;29;1097;-78
2023/08/10 01:11:39;;;;;;;5.93;3.20;;;;;;;16.52;63.75;101452.34;681213;29;1318;-78
2023/08/10 01:12:17;;;;;;;4.97;2.97;;;;;;;16.52;63.70;101444.44;678219;29;884;-78
2023/08/10 01:12:50;;;;;;;6.82;3.58;;;;;;;16.54;63.85;101447.13;684732;28;1374;-78
2023/08/10 01:13:23;;;;;;;5.50;3.40;;;;;;;16.53;63.94;101447.97;682695;29;1204;-77
2023/08/10 01:13:52;;;;;;;7.03;3.35;;;;;;;16.50;63.85;101446.19;682842;28;1003;-77
2023/08/10 01:14:25;;;;;;;7.72;3.20;;;;;;;16.47;63.82;101437.34;685090;28;1181;-77
2023/08/10 01:15:06;;;;;;;5.85;3.45;;;;;;;16.49;63.98;101443.53;681511;29;1840;-78
2023/08/10 01:15:37;;;;;;;7.55;3.60;;;;;;;16.56;64.05;101455.91;684504;28;1289;-78
2023/08/10 01:16:04;;;;;;;12.25;3.28;;;;;;;16.58;63.96;101459.44;679694;28;1979;-78
2023/08/10 01:16:27;;;;;;;11.27;3.10;;;;;;;16.49;63.99;101438.25;678003;29;1279;-78
2023/08/10 01:16:50;;;;;;;6.63;3.20;;;;;;;16.46;63.93;101435.59;677187;29;1228;-77
2023/08/10 01:17:19;;;;;;;6.25;3.25;;;;;;;16.47;64.08;101435.59;682728;29;1037;-77
2023/08/10 01:17:47;;;;;;;6.00;3.20;;;;;;;16.50;64.05;101440.00;682631;29;1241;-78
2023/08/10 01:18:14;;;;;;;6.75;3.00;;;;;;;16.48;63.97;101439.13;679725;29;1297;-78
2023/08/10 01:18:38;;;;;;;7.10;3.30;;;;;;;16.48;63.99;101439.13;680436;29;1063;-79
2023/08/10 01:18:59;;;;;;;6.45;3.50;;;;;;;16.56;64.08;101450.66;677540;29;864;-77
2023/08/10 01:19:32;;;;;;;6.97;3.58;;;;;;;16.56;63.96;101445.38;680134;29;1104;-77
2023/08/10 01:19:54;;;;;;;5.80;3.15;;;;;;;16.53;64.13;101446.22;685225;28;1141;-78
2023/08/10 01:20:18;;;;;;;6.38;3.20;;;;;;;16.53;64.04;101447.97;679257;29;1961;-77
2023/08/10 01:20:41;;;;;;;6.10;3.50;;;;;;;16.49;63.94;101441.78;677309;29;1098;-77
2023/08/10 01:21:17;;;;;;;5.25;3.50;;;;;;;16.55;63.96;101451.50;677685;29;986;-78
2023/08/10 01:21:49;;;;;;;6.25;3.45;;;;;;;16.50;63.84;101446.19;680063;29;951;-79
2023/08/10 01:22:35;;;;;;;10.32;3.30;;;;;;;16.57;63.83;101452.41;680198;29;1130;-77
2023/08/10 01:23:14;;;;;;;12.18;3.08;;;;;;;16.49;64.03;101443.53;685384;28;1080;-78
2023/08/10 01:23:40;;;;;;;9.48;3.20;;;;;;;16.58;63.99;101456.81;677909;29;1180;-77
2023/08/10 01:24:10;;;;;;;6.90;3.30;;;;;;;16.53;63.93;101445.34;680136;29;1438;-78
2023/08/10 01:24:38;;;;;;;9.18;3.45;;;;;;;16.51;63.90;101445.31;680270;29;760;-77
2023/08/10 01:25:02;;;;;;;9.38;3.40;;;;;;;16.51;63.88;101442.69;682789;29;1365;-77
2023/08/10 01:25:25;;;;;;;10.65;3.55;;;;;;;16.50;63.77;101447.91;677416;29;1052;-78
2023/08/10 01:25:47;;;;;;;13.95;3.90;;;;;;;16.51;64.06;101445.31;674065;29;1786;-77
2023/08/10 01:26:09;;;;;;;14.10;3.92;;;;;;;16.52;63.77;101446.19;677437;29;1364;-78
2023/08/10 01:26:30;;;;;;;10.40;3.83;;;;;;;16.51;63.74;101445.31;682646;29;1127;-78
2023/08/10 01:26:53;;;;;;;5.93;3.60;;;;;;;16.57;63.75;101452.41;682340;28;1176;-78
2023/08/10 01:27:15;;;;;;;5.35;3.40;;;;;;;16.54;63.60;101455.88;682078;28;1737;-77
2023/08/10 01:27:36;;;;;;;5.32;3.22;;;;;;;16.53;63.67;101446.22;680330;29;1910;-77
2023/08/10 01:27:57;;;;;;;7.50;3.30;;;;;;;16.50;63.59;101440.00;679309;29;1763;-77
2023/08/10 01:28:18;;;;;;;7.47;3.28;;;;;;;16.52;63.58;101439.19;679495;29;1337;-77
2023/08/10 01:28:40;;;;;;;7.47;3.50;;;;;;;16.52;63.54;101448.81;679531;29;1182;-78
2023/08/10 01:29:02;;;;;;;7.00;3.40;;;;;;;16.57;63.41;101455.03;677750;29;1129;-78
2023/08/10 01:29:24;;;;;;;7.28;3.63;;;;;;;16.55;63.52;101448.88;676588;29;1097;-78
2023/08/10 01:29:44;;;;;;;7.75;3.65;;;;;;;16.48;63.45;101442.66;674566;29;999;-77
2023/08/10 01:30:07;;;;;;;7.32;3.78;;;;;;;16.56;63.42;101450.66;674329;29;1526;-78
2023/08/10 01:30:28;;;;;;;7.10;3.33;;;;;;;16.56;63.12;101454.19;677189;29;1398;-77
2023/08/10 01:30:51;;;;;;;7.35;3.22;;;;;;;16.54;63.30;101447.13;680318;29;1424;-77
2023/08/10 01:31:11;;;;;;;8.32;3.28;;;;;;;16.56;63.22;101454.19;682562;29;1056;-77
2023/08/10 01:31:32;;;;;;;8.55;3.50;;;;;;;16.51;63.31;101447.06;682937;29;1034;-78
2023/08/10 01:31:53;;;;;;;9.50;3.60;;;;;;;16.51;63.13;101439.16;679798;29;1113;-77
2023/08/10 01:32:14;;;;;;;9.18;3.65;;;;;;;16.51;63.13;101444.41;679851;29;1016;-78
2023/08/10 01:32:35;;;;;;;8.30;3.65;;;;;;;16.52;62.99;101448.81;682727;29;953;-78
2023/08/10 01:32:56;;;;;;;5.97;3.60;;;;;;;16.54;63.02;101447.97;687976;28;1155;-78
2023/08/10 01:33:18;;;;;;;6.18;3.67;;;;;;;16.54;62.96;101452.38;687892;28;1107;-77
2023/08/10 01:33:38;;;;;;;5.68;3.42;;;;;;;16.54;62.71;101449.75;685143;28;1186;-78
2023/08/10 01:33:59;;;;;;;5.38;3.40;;;;;;;16.48;62.85;101441.75;680234;29;880;-78
2023/08/10 01:34:20;;;;;;;5.90;3.30;;;;;;;16.43;63.00;101434.66;677223;29;1258;-78
2023/08/10 01:34:40;;;;;;;6.10;3.27;;;;;;;16.50;63.00;101440.00;679810;29;1061;-78
2023/08/10 01:35:05;;;;;;;6.82;3.30;;;;;;;16.56;63.27;101450.66;680136;29;780;-78
2023/08/10 01:35:26;;;;;;;6.78;3.22;;;;;;;16.49;63.08;101444.41;679762;29;1212;-78
2023/08/10 01:35:46;;;;;;;6.50;3.28;;;;;;;16.52;63.04;101459.34;675114;29;1397;-77
2023/08/10 01:36:07;;;;;;;6.65;3.63;;;;;;;16.50;63.20;101450.56;680245;29;995;-78
2023/08/10 01:36:28;;;;;;;6.90;3.80;;;;;;;16.50;62.88;101450.56;679890;29;1214;-78
2023/08/10 01:36:48;;;;;;;7.70;4.03;;;;;;;16.53;63.27;101462.03;682274;29;1425;-78
2023/08/10 01:37:09;;;;;;;9.32;3.70;;;;;;;16.51;63.00;101452.31;686793;28;1638;-78
2023/08/10 01:37:30;;;;;;;11.32;3.60;;;;;;;16.50;63.36;101453.19;685544;28;839;-78
2023/08/10 01:37:50;;;;;;;11.32;3.40;;;;;;;16.51;63.23;101460.22;681330;29;1497;-78
2023/08/10 01:38:11;;;;;;;7.80;3.10;;;;;;;16.49;63.25;101447.06;682712;28;1176;-77
2023/08/10 01:38:32;;;;;;;5.15;3.20;;;;;;;16.53;63.15;101458.53;685036;28;1080;-77
2023/08/10 01:38:52;;;;;;;6.18;3.10;;;;;;;16.48;63.33;101452.28;687503;28;1746;-78
2023/08/10 01:39:13;;;;;;;10.93;3.60;;;;;;;16.51;63.24;101457.59;682725;28;1246;-78
2023/08/10 01:39:35;;;;;;;13.10;3.78;;;;;;;16.52;63.01;101459.34;677688;29;1294;-78
2023/08/10 01:39:56;;;;;;;10.48;3.55;;;;;;;16.48;63.43;101454.91;679830;29;1062;-77
2023/08/10 01:40:17;;;;;;;7.13;3.20;;;;;;;16.50;63.09;101455.81;682704;29;1053;-77
2023/08/10 01:40:38;;;;;;;5.50;3.30;;;;;;;16.50;63.01;101450.56;682509;29;986;-78
2023/08/10 01:40:58;;;;;;;6.25;3.50;;;;;;;16.47;62.99;101445.25;683883;28;1967;-78
2023/08/10 01:41:19;;;;;;;6.78;3.70;;;;;;;16.48;63.08;101457.56;679975;29;1073;-77
2023/08/10 01:41:40;;;;;;;7.87;3.80;;;;;;;16.55;63.07;101462.06;677132;29;1193;-77
2023/08/10 01:42:00;;;;;;;7.78;3.70;;;;;;;16.46;62.94;101443.47;677171;29;1665;-77
2023/08/10 01:42:21;;;;;;;7.63;3.42;;;;;;;16.50;63.07;101455.81;682651;29;1100;-78
2023/08/10 01:42:43;;;;;;;6.30;3.17;;;;;;;16.46;62.94;101446.13;679885;29;1050;-78
2023/08/10 01:43:04;;;;;;;7.75;3.20;;;;;;;16.43;62.89;101445.19;679826;29;1545;-77
2023/08/10 01:43:25;;;;;;;7.30;3.67;;;;;;;16.47;63.25;101453.16;679863;29;1251;-77
2023/08/10 01:43:45;;;;;;;8.55;4.00;;;;;;;16.47;62.98;101456.66;679900;29;1038;-77
2023/08/10 01:44:06;;;;;;;8.60;4.35;;;;;;;16.49;63.12;101456.69;680040;29;1101;-77
2023/08/10 01:44:27;;;;;;;9.00;3.90;;;;;;;16.46;63.10;101449.63;679943;29;1077;-78
2023/08/10 01:44:48;;;;;;;9.18;3.60;;;;;;;16.47;63.27;101454.03;679837;29;1084;-77
2023/08/10 01:45:09;;;;;;;8.10;3.20;;;;;;;16.50;63.09;101466.34;677419;29;869;-78
2023/08/10 01:45:30;;;;;;;6.95;3.20;;;;;;;16.52;63.07;101462.00;682378;28;1372;-77
2023/08/10 01:45:55;;;;;;;5.63;3.30;;;;;;;16.52;63.00;101469.88;681845;28;1170;-77
2023/08/10 01:46:27;;;;;;;6.95;3.50;;;;;;;16.44;62.95;101457.53;682183;29;1110;-78
2023/08/10 01:46:50;;;;;;;7.18;3.50;;;;;;;16.47;63.12;101458.44;674784;29;985;-78